AIA weather

Alliance Municipal Airport
Alliance, Nebraska, United States

Public forecast

Using degrees Fahrenheit for public forecast. Weather courtesy of forecast.io.

METAR (pilot weather report)

Retrieved 2019/05/21 03:32 UTC (26 minutes ago):

KAIA 210332Z AUTO 08011KT 6SM RA BR SCT007 OVC012 03/03 A2988 RMK AO2 P0003 T00280028

TAF (pilot weather forecast)

Forecast is more than 12 hours old.

Retrieved 2019/05/20 00:22 UTC (1 day ago):

TAF KAIA 202320Z 2100/2124 09010KT 5SM -RA BR BKN008 OVC013 FM210600 09018G27KT 3SM -RA BR OVC006 FM211400 06019G28KT 3SM -RA BR OVC005